Time;durP1;ratioP1;P1;durP2;ratioP2;P2;SDS_P1;SDS_P2;PMS_P1;PMS_P2;Temp;Humidity;BMP_temperature;BMP_pressure;BME280_temperature;BME280_humidity;BME280_pressure;Samples;Min_cycle;Max_cycle;Signal;HPM_P1;HPM_P2
2023/04/01 00:03:05;;;;;;;;;;;;;;;19.41;37.61;94412.63;10500585;28;1967;-68
2023/04/01 00:08:05;;;;;;;;;;;;;;;19.41;37.44;94423.13;10483417;28;1910;-67
2023/04/01 00:13:06;;;;;;;;;;;;;;;19.38;37.57;94408.00;10480741;28;1949;-68
2023/04/01 00:18:07;;;;;;;;;;;;;;;19.38;37.48;94396.69;10479557;28;2223;-68
2023/04/01 00:23:08;;;;;;;;;;;;;;;19.37;37.62;94385.41;10483470;28;1948;-65
2023/04/01 00:28:09;;;;;;;;;;;;;;;19.37;37.45;94393.28;10483440;28;2002;-68
2023/04/01 00:33:09;;;;;;;;;;;;;;;19.35;37.53;94399.94;10482683;28;2019;-68
2023/04/01 00:38:11;;;;;;;;;;;;;;;19.35;37.44;94399.94;10462246;28;2192;-65
2023/04/01 00:43:19;;;;;;;;;;;;;;;19.34;37.42;94391.25;10481547;28;2005;-66
2023/04/01 00:48:22;;;;;;;;;;;;;;;19.34;37.26;94393.88;10484352;28;2025;-67
2023/04/01 00:53:23;;;;;;;;;;;;;;;19.35;37.37;94399.94;10480619;28;1953;-67
2023/04/01 00:58:24;;;;;;;;;;;;;;;19.33;37.28;94400.22;10481414;28;1940;-67
2023/04/01 01:03:24;;;;;;;;;;;;;;;19.32;37.32;94392.59;10479651;28;1991;-67
2023/04/01 01:09:07;;;;;;;;;;;;;;;19.31;37.38;94398.91;10485735;28;1976;-67
2023/04/01 01:14:12;;;;;;;;;;;;;;;19.29;37.09;94382.66;10312267;28;2092;-66
2023/04/01 01:19:15;;;;;;;;;;;;;;;19.28;37.07;94392.44;10444492;28;1998;-67
2023/04/01 01:24:25;;;;;;;;;;;;;;;19.26;37.06;94401.66;10484579;28;1909;-67
2023/04/01 01:29:37;;;;;;;;;;;;;;;19.26;37.13;94393.78;10480384;28;2080;-67
2023/04/01 01:34:46;;;;;;;;;;;;;;;19.25;37.13;94384.34;10470107;28;2044;-67
2023/04/01 01:39:48;;;;;;;;;;;;;;;19.22;36.94;94377.84;10482513;28;2003;-66
2023/04/01 01:44:48;;;;;;;;;;;;;;;19.22;36.98;94379.69;10483606;28;2025;-67
2023/04/01 01:49:50;;;;;;;;;;;;;;;19.21;37.13;94381.53;10464215;28;1949;-68
2023/04/01 01:54:51;;;;;;;;;;;;;;;19.21;36.78;94370.25;10468797;28;1902;-67
2023/04/01 01:59:52;;;;;;;;;;;;;;;19.20;36.79;94385.25;10485133;28;2218;-67
2023/04/01 02:04:53;;;;;;;;;;;;;;;19.17;36.83;94385.84;10486329;28;2043;-67
2023/04/01 02:09:55;;;;;;;;;;;;;;;19.16;36.74;94373.78;10480807;28;2000;-66
2023/04/01 02:15:06;;;;;;;;;;;;;;;19.15;36.80;94387.97;10462491;28;2093;-67
2023/04/01 02:20:10;;;;;;;;;;;;;;;19.13;36.77;94395.38;10478278;28;2185;-65
2023/04/01 02:25:12;;;;;;;;;;;;;;;19.14;36.51;94389.06;10460680;28;1928;-65
2023/04/01 02:30:16;;;;;;;;;;;;;;;19.12;36.56;94393.06;10457935;28;2036;-66
2023/04/01 02:35:16;;;;;;;;;;;;;;;19.12;36.62;94393.06;10457007;28;2007;-66
2023/04/01 02:40:18;;;;;;;;;;;;;;;19.10;36.69;94398.59;10445001;28;1949;-66
2023/04/01 02:45:18;;;;;;;;;;;;;;;19.09;36.62;94391.78;10477943;28;1948;-66
2023/04/01 02:50:28;;;;;;;;;;;;;;;19.09;36.69;94402.31;10446064;28;2129;-66
2023/04/01 02:55:30;;;;;;;;;;;;;;;19.07;36.73;94407.06;10478245;28;2041;-67
2023/04/01 03:00:31;;;;;;;;;;;;;;;19.08;36.70;94421.75;10464736;28;1964;-66
2023/04/01 03:05:31;;;;;;;;;;;;;;;19.06;36.65;94415.25;10481874;28;1960;-66
2023/04/01 03:10:32;;;;;;;;;;;;;;;19.06;36.67;94410.75;10479219;28;2043;-66
2023/04/01 03:15:33;;;;;;;;;;;;;;;19.05;36.40;94413.69;10474722;28;2056;-66
2023/04/01 03:20:33;;;;;;;;;;;;;;;19.04;36.31;94409.53;10482420;28;1956;-67
2023/04/01 03:25:35;;;;;;;;;;;;;;;19.03;36.54;94428.97;10482886;28;2084;-66
2023/04/01 03:30:36;;;;;;;;;;;;;;;19.03;36.35;94410.56;10478980;28;2092;-66
2023/04/01 03:35:36;;;;;;;;;;;;;;;19.02;36.69;94420.31;10475254;28;1978;-66
2023/04/01 03:40:38;;;;;;;;;;;;;;;19.00;36.33;94427.69;10481158;28;1988;-66
2023/04/01 03:45:45;;;;;;;;;;;;;;;19.00;36.17;94422.44;10493303;28;1963;-66
2023/04/01 03:50:46;;;;;;;;;;;;;;;18.99;36.48;94435.88;10455932;28;2187;-66
2023/04/01 03:55:47;;;;;;;;;;;;;;;18.98;36.29;94432.47;10476818;28;2012;-66
2023/04/01 04:00:48;;;;;;;;;;;;;;;18.97;36.31;94444.06;10476995;28;2195;-65
2023/04/01 04:05:49;;;;;;;;;;;;;;;18.98;36.39;94444.84;10482026;28;2110;-65
2023/04/01 04:10:54;;;;;;;;;;;;;;;19.01;36.58;94446.88;10488740;28;1956;-66
2023/04/01 04:15:55;;;;;;;;;;;;;;;19.04;36.82;94449.66;10483692;28;1952;-66
2023/04/01 04:20:55;;;;;;;;;;;;;;;19.09;36.79;94443.53;10484043;28;1953;-65
2023/04/01 04:25:56;;;;;;;;;;;;;;;19.16;36.94;94452.59;10484730;28;2003;-65
2023/04/01 04:30:56;;;;;;;;;;;;;;;19.28;36.82;94441.56;10487280;28;2004;-67
2023/04/01 04:35:57;;;;;;;;;;;;;;;19.34;36.87;94443.03;10487711;28;1979;-66
2023/04/01 04:40:58;;;;;;;;;;;;;;;19.42;36.75;94445.72;10481847;28;2086;-66
2023/04/01 04:45:59;;;;;;;;;;;;;;;19.48;36.63;94455.06;10483394;28;1968;-65
2023/04/01 04:50:59;;;;;;;;;;;;;;;19.56;36.55;94460.69;10461160;28;2041;-66
2023/04/01 04:55:59;;;;;;;;;;;;;;;19.58;36.54;94464.56;10486796;28;1971;-66
2023/04/01 05:01:05;;;;;;;;;;;;;;;19.65;36.29;94469.41;10482273;28;2050;-66
2023/04/01 05:06:06;;;;;;;;;;;;;;;19.69;36.29;94470.34;10480467;28;2007;-66
2023/04/01 05:11:07;;;;;;;;;;;;;;;19.70;36.34;94464.03;10484071;28;2044;-66
2023/04/01 05:16:08;;;;;;;;;;;;;;;19.75;36.23;94463.91;10484704;28;2111;-66
2023/04/01 05:21:09;;;;;;;;;;;;;;;19.75;36.44;94458.66;10485742;28;2010;-66
2023/04/01 05:26:10;;;;;;;;;;;;;;;19.79;36.36;94459.59;10486853;28;2008;-66
2023/04/01 05:31:11;;;;;;;;;;;;;;;19.82;35.83;94454.53;10480955;28;1952;-66
2023/04/01 05:36:13;;;;;;;;;;;;;;;19.88;35.87;94471.75;10478725;28;2131;-66
2023/04/01 05:41:16;;;;;;;;;;;;;;;19.93;35.55;94461.09;10482823;28;2012;-65
2023/04/01 05:46:17;;;;;;;;;;;;;;;19.95;35.81;94455.53;10483169;28;2089;-66
2023/04/01 05:51:17;;;;;;;;;;;;;;;19.96;35.95;94460.50;10460733;28;1992;-66
2023/04/01 05:56:17;;;;;;;;;;;;;;;20.04;35.79;94465.03;10477716;28;2047;-66
2023/04/01 06:01:18;;;;;;;;;;;;;;;20.08;35.59;94465.22;10481869;28;2054;-66
2023/04/01 06:06:28;;;;;;;;;;;;;;;20.09;35.38;94462.28;10479092;28;2059;-66
2023/04/01 06:11:28;;;;;;;;;;;;;;;20.11;35.38;94456.72;10465420;28;1985;-66
2023/04/01 06:16:29;;;;;;;;;;;;;;;20.17;35.35;94458.16;10480031;28;1971;-66
2023/04/01 06:21:47;;;;;;;;;;;;;;;20.19;35.23;94458.63;10475378;28;1991;-67
2023/04/01 06:26:50;;;;;;;;;;;;;;;20.22;35.20;94458.81;10478085;28;1987;-66
2023/04/01 06:31:52;;;;;;;;;;;;;;;20.24;35.05;94461.94;10477827;28;1964;-67
2023/04/01 06:37:08;;;;;;;;;;;;;;;20.24;35.09;94461.16;10465381;28;2008;-66
2023/04/01 06:42:18;;;;;;;;;;;;;;;20.28;35.08;94470.00;10460622;28;1981;-66
2023/04/01 06:47:48;;;;;;;;;;;;;;;20.27;35.35;94461.34;10461713;28;1984;-66
2023/04/01 06:53:10;;;;;;;;;;;;;;;20.29;35.03;94455.78;10409613;28;2023;-66
2023/04/01 06:58:45;;;;;;;;;;;;;;;20.35;34.87;94466.94;10476517;28;1987;-66
2023/04/01 07:03:50;;;;;;;;;;;;;;;20.31;35.09;94482.56;10423648;28;1967;-66
2023/04/01 07:08:50;;;;;;;;;;;;;;;20.40;34.46;94478.13;10485690;28;1937;-65
2023/04/01 07:13:57;;;;;;;;;;;;;;;20.39;34.54;94473.16;10478346;28;2009;-66
2023/04/01 07:19:07;;;;;;;;;;;;;;;20.38;34.48;94468.97;10481132;28;1953;-65
2023/04/01 07:24:21;;;;;;;;;;;;;;;20.31;34.63;94472.03;10474287;28;1996;-66
2023/04/01 07:29:22;;;;;;;;;;;;;;;20.33;34.56;94476.97;10461317;28;1988;-66
2023/04/01 07:34:26;;;;;;;;;;;;;;;20.24;34.90;94475.09;10476558;28;2056;-62
2023/04/01 07:39:56;;;;;;;;;;;;;;;20.23;35.25;94467.50;10489146;28;2194;-63
2023/04/01 07:44:59;;;;;;;;;;;;;;;20.20;35.21;94483.88;10448140;28;1932;-62
2023/04/01 07:50:07;;;;;;;;;;;;;;;20.15;35.92;94478.72;10485843;28;1968;-64
2023/04/01 07:55:16;;;;;;;;;;;;;;;20.14;36.16;94479.78;10465042;28;2118;-64
2023/04/01 08:00:31;;;;;;;;;;;;;;;20.13;36.33;94488.78;10484355;28;2124;-64
2023/04/01 08:05:45;;;;;;;;;;;;;;;20.10;36.44;94477.00;10482620;28;2146;-66
2023/04/01 08:10:46;;;;;;;;;;;;;;;20.09;36.58;94485.19;10464856;28;1939;-64
2023/04/01 08:15:49;;;;;;;;;;;;;;;20.05;36.30;94494.75;10483040;28;2052;-66
2023/04/01 08:21:12;;;;;;;;;;;;;;;20.06;36.28;94485.78;10485139;28;2190;-59
2023/04/01 08:26:13;;;;;;;;;;;;;;;20.06;36.09;94486.56;10476508;28;1994;-57
2023/04/01 08:31:15;;;;;;;;;;;;;;;20.07;36.07;94490.72;10485353;28;1960;-65
2023/04/01 08:36:17;;;;;;;;;;;;;;;20.08;35.91;94467.84;10465898;28;2136;-59
2023/04/01 08:41:25;;;;;;;;;;;;;;;20.05;36.28;94479.72;10463441;28;1936;-66
2023/04/01 08:46:29;;;;;;;;;;;;;;;20.04;36.11;94467.69;10467266;28;1912;-65
2023/04/01 08:51:48;;;;;;;;;;;;;;;20.03;36.04;94466.09;10484563;28;2013;-61
2023/04/01 08:56:55;;;;;;;;;;;;;;;20.01;36.20;94481.41;10484039;28;2032;-61
2023/04/01 09:01:58;;;;;;;;;;;;;;;20.02;36.21;94484.81;10483366;28;2075;-58
2023/04/01 09:07:15;;;;;;;;;;;;;;;20.04;37.43;94466.88;10465732;28;1897;-60
2023/04/01 09:12:34;;;;;;;;;;;;;;;20.03;37.55;94468.75;10459936;28;1987;-63
2023/04/01 09:17:41;;;;;;;;;;;;;;;20.05;37.39;94460.56;10483227;28;2057;-60
2023/04/01 09:22:59;;;;;;;;;;;;;;;20.03;38.00;94465.34;10455842;28;2051;-60
2023/04/01 09:28:10;;;;;;;;;;;;;;;20.05;37.80;94466.59;10482830;28;2060;-61
2023/04/01 09:33:23;;;;;;;;;;;;;;;20.09;37.68;94459.63;10463022;28;2033;-62
2023/04/01 09:38:42;;;;;;;;;;;;;;;20.09;38.16;94438.59;10481847;28;1972;-60
2023/04/01 09:43:57;;;;;;;;;;;;;;;20.24;38.50;94440.09;10481193;28;2277;-63
2023/04/01 09:49:00;;;;;;;;;;;;;;;20.32;38.47;94426.19;10490592;28;2053;-69
2023/04/01 09:54:18;;;;;;;;;;;;;;;20.31;38.21;94422.03;10483155;28;1977;-60
2023/04/01 09:59:35;;;;;;;;;;;;;;;20.33;38.42;94425.13;10490462;28;1902;-58
2023/04/01 10:04:54;;;;;;;;;;;;;;;20.33;38.68;94427.78;10472619;28;1964;-59
2023/04/01 10:10:20;;;;;;;;;;;;;;;20.34;38.18;94418.03;10474756;28;1941;-59
2023/04/01 10:15:33;;;;;;;;;;;;;;;20.36;38.08;94415.88;10473732;28;1991;-59
2023/04/01 10:20:47;;;;;;;;;;;;;;;20.41;37.88;94416.50;10479133;28;2050;-61
2023/04/01 10:25:57;;;;;;;;;;;;;;;20.45;37.64;94420.06;10487836;28;2212;-60
2023/04/01 10:31:02;;;;;;;;;;;;;;;20.47;37.72;94428.44;10456325;28;2013;-61
2023/04/01 10:36:21;;;;;;;;;;;;;;;20.47;36.73;94422.41;10461171;28;2101;-60
2023/04/01 10:41:28;;;;;;;;;;;;;;;20.47;36.23;94417.13;10477244;28;1995;-61
2023/04/01 10:46:47;;;;;;;;;;;;;;;20.45;35.78;94411.41;10478102;28;1976;-61
2023/04/01 10:51:59;;;;;;;;;;;;;;;20.45;36.79;94435.09;10481966;28;1976;-66
2023/04/01 10:57:18;;;;;;;;;;;;;;;20.49;36.97;94430.75;10458017;28;1983;-65
2023/04/01 11:02:34;;;;;;;;;;;;;;;20.54;37.74;94443.81;10477811;28;2040;-58
2023/04/01 11:07:53;;;;;;;;;;;;;;;20.63;37.19;94448.00;10476855;28;2092;-63
2023/04/01 11:13:05;;;;;;;;;;;;;;;20.70;36.98;94461.53;10475312;28;2074;-62
2023/04/01 11:18:11;;;;;;;;;;;;;;;20.75;37.42;94442.94;10479431;28;2033;-65
2023/04/01 11:23:18;;;;;;;;;;;;;;;20.82;37.11;94445.13;10485769;28;2022;-65
2023/04/01 11:28:24;;;;;;;;;;;;;;;20.87;37.92;94455.53;10486241;28;1917;-66
2023/04/01 11:33:27;;;;;;;;;;;;;;;20.88;37.85;94455.22;10486192;28;2123;-65
2023/04/01 11:38:31;;;;;;;;;;;;;;;20.90;37.27;94470.72;10481871;28;2028;-66
2023/04/01 11:43:34;;;;;;;;;;;;;;;20.90;36.93;94466.22;10463066;28;2144;-64
2023/04/01 11:48:55;;;;;;;;;;;;;;;20.89;37.02;94471.81;10468343;28;2046;-64
2023/04/01 11:54:14;;;;;;;;;;;;;;;20.88;37.23;94492.09;10471581;28;2035;-63
2023/04/01 11:59:15;;;;;;;;;;;;;;;20.88;37.01;94491.31;10476203;28;1980;-65
2023/04/01 12:04:35;;;;;;;;;;;;;;;20.88;37.10;94496.56;10484205;28;1957;-65
2023/04/01 12:09:41;;;;;;;;;;;;;;;20.90;37.34;94491.78;10484909;28;2045;-65
2023/04/01 12:14:45;;;;;;;;;;;;;;;20.89;37.12;94491.03;10473464;28;2009;-65
2023/04/01 12:19:51;;;;;;;;;;;;;;;20.90;37.06;94487.28;10478863;28;2006;-65
2023/04/01 12:25:20;;;;;;;;;;;;;;;20.89;36.98;94485.75;10496523;28;1956;-66
2023/04/01 12:30:42;;;;;;;;;;;;;;;20.89;37.19;94488.41;10485889;28;1973;-65
2023/04/01 12:35:45;;;;;;;;;;;;;;;20.90;36.70;94494.41;10464713;28;2071;-66
2023/04/01 12:41:05;;;;;;;;;;;;;;;20.89;36.87;94488.41;10482832;28;1986;-66
2023/04/01 12:46:32;;;;;;;;;;;;;;;20.90;36.97;94495.19;10479055;28;2077;-65
2023/04/01 12:51:39;;;;;;;;;;;;;;;20.89;36.86;94504.19;10464153;28;1989;-65
2023/04/01 12:56:57;;;;;;;;;;;;;;;20.89;37.20;94498.94;10478916;28;1980;-65
2023/04/01 13:02:19;;;;;;;;;;;;;;;20.87;37.07;94490.56;10483266;28;2101;-65
2023/04/01 13:07:19;;;;;;;;;;;;;;;20.87;36.84;94495.81;10466036;28;1925;-65
2023/04/01 13:12:39;;;;;;;;;;;;;;;20.86;36.83;94489.00;10481327;28;2040;-65
2023/04/01 13:17:48;;;;;;;;;;;;;;;20.86;36.86;94499.53;10481468;28;2136;-65
2023/04/01 13:22:51;;;;;;;;;;;;;;;20.85;36.82;94510.38;10479039;28;1939;-65
2023/04/01 13:27:54;;;;;;;;;;;;;;;20.84;37.00;94501.69;10479264;28;1964;-65
2023/04/01 13:33:01;;;;;;;;;;;;;;;20.86;37.94;94511.91;10464420;28;1998;-63
2023/04/01 13:38:05;;;;;;;;;;;;;;;20.85;37.52;94511.16;10457499;28;2042;-66
2023/04/01 13:43:05;;;;;;;;;;;;;;;20.84;37.05;94517.50;10458098;28;1940;-65
2023/04/01 13:48:25;;;;;;;;;;;;;;;20.80;36.77;94519.19;10481934;28;1973;-66
2023/04/01 13:53:26;;;;;;;;;;;;;;;20.75;36.56;94513.28;10482104;28;2052;-59
2023/04/01 13:58:38;;;;;;;;;;;;;;;20.72;36.64;94511.25;10483176;28;2099;-63
2023/04/01 14:03:42;;;;;;;;;;;;;;;20.70;36.47;94508.91;10466441;28;1908;-55
2023/04/01 14:08:55;;;;;;;;;;;;;;;20.70;36.61;94510.78;10478579;28;2067;-67
2023/04/01 14:14:00;;;;;;;;;;;;;;;20.68;36.34;94513.72;10493960;28;1850;-67
2023/04/01 14:19:03;;;;;;;;;;;;;;;20.68;37.01;94511.09;10498952;28;1986;-67
2023/04/01 14:24:13;;;;;;;;;;;;;;;20.68;36.78;94508.44;10478211;28;2107;-68
2023/04/01 14:29:18;;;;;;;;;;;;;;;20.68;36.63;94518.97;10481469;28;2036;-66
2023/04/01 14:34:32;;;;;;;;;;;;;;;20.67;37.06;94512.16;10443919;28;2166;-66
2023/04/01 14:39:42;;;;;;;;;;;;;;;20.68;37.19;94511.09;10461411;28;2071;-64
2023/04/01 14:44:46;;;;;;;;;;;;;;;20.69;36.58;94515.25;10474121;28;2048;-64
2023/04/01 14:49:46;;;;;;;;;;;;;;;20.69;36.82;94515.25;10452548;28;1924;-63
2023/04/01 14:54:47;;;;;;;;;;;;;;;20.69;36.81;94515.25;10457279;28;1978;-64
2023/04/01 14:59:50;;;;;;;;;;;;;;;20.70;37.43;94524.72;10457165;28;2049;-65
2023/04/01 15:05:02;;;;;;;;;;;;;;;20.69;36.92;94509.22;10456420;28;2005;-65
2023/04/01 15:10:21;;;;;;;;;;;;;;;20.69;37.41;94514.50;10476415;28;2068;-67
2023/04/01 15:15:21;;;;;;;;;;;;;;;20.72;37.79;94508.59;10466962;28;2108;-65
2023/04/01 15:20:32;;;;;;;;;;;;;;;20.68;37.27;94518.97;10472580;28;2008;-66
2023/04/01 15:25:52;;;;;;;;;;;;;;;20.66;36.85;94530.88;10462825;28;2095;-63
2023/04/01 15:31:02;;;;;;;;;;;;;;;20.63;36.57;94534.91;10478267;28;1994;-65
2023/04/01 15:36:06;;;;;;;;;;;;;;;20.62;36.82;94533.34;10477713;28;1980;-66
2023/04/01 15:41:12;;;;;;;;;;;;;;;20.61;37.12;94555.47;10477135;28;2046;-66
2023/04/01 15:46:32;;;;;;;;;;;;;;;20.61;36.58;94554.72;10479958;28;2069;-66
2023/04/01 15:51:38;;;;;;;;;;;;;;;20.59;37.21;94548.97;10478255;28;1980;-65
2023/04/01 15:56:45;;;;;;;;;;;;;;;20.57;36.84;94548.47;10475811;28;2016;-65
2023/04/01 16:01:46;;;;;;;;;;;;;;;20.56;37.67;94550.38;10459368;28;1947;-65
2023/04/01 16:06:56;;;;;;;;;;;;;;;20.55;36.79;94542.75;10478100;28;1956;-63
2023/04/01 16:12:24;;;;;;;;;;;;;;;20.53;37.60;94544.91;10483453;28;1968;-61
2023/04/01 16:17:27;;;;;;;;;;;;;;;20.53;36.59;94540.41;10460613;28;1965;-61
2023/04/01 16:22:40;;;;;;;;;;;;;;;20.53;36.95;94542.28;10484977;28;2048;-62
2023/04/01 16:27:47;;;;;;;;;;;;;;;20.53;37.02;94550.94;10448878;28;2060;-65
2023/04/01 16:32:51;;;;;;;;;;;;;;;20.56;37.17;94542.47;10478339;28;1946;-64
2023/04/01 16:37:53;;;;;;;;;;;;;;;20.57;37.22;94538.75;10478848;28;1994;-63
2023/04/01 16:42:54;;;;;;;;;;;;;;;20.60;37.06;94548.69;10478593;28;2099;-63
2023/04/01 16:47:59;;;;;;;;;;;;;;;20.61;37.23;94552.84;10478979;28;2056;-63
2023/04/01 16:53:13;;;;;;;;;;;;;;;20.62;37.31;94551.78;10484193;28;2156;-63
2023/04/01 16:58:18;;;;;;;;;;;;;;;20.61;37.35;94562.63;10463580;28;2061;-62
2023/04/01 17:03:29;;;;;;;;;;;;;;;20.64;37.80;94568.06;10434898;28;2349;-63
2023/04/01 17:08:36;;;;;;;;;;;;;;;20.63;37.63;94574.38;10460773;28;2071;-63
2023/04/01 17:13:40;;;;;;;;;;;;;;;20.61;37.33;94576.56;10458929;28;2162;-62
2023/04/01 17:18:47;;;;;;;;;;;;;;;20.60;37.58;94580.28;10478802;28;2057;-62
2023/04/01 17:23:50;;;;;;;;;;;;;;;20.60;37.74;94584.75;10481999;28;1993;-62
2023/04/01 17:29:05;;;;;;;;;;;;;;;20.59;37.46;94586.59;10473707;28;2059;-63
2023/04/01 17:34:12;;;;;;;;;;;;;;;20.60;38.02;94590.03;10448936;28;2047;-63
2023/04/01 17:39:16;;;;;;;;;;;;;;;20.63;38.26;94590.19;10481316;28;2042;-61
2023/04/01 17:44:36;;;;;;;;;;;;;;;20.63;37.81;94594.69;10467948;28;2010;-63
2023/04/01 17:49:38;;;;;;;;;;;;;;;20.62;37.75;94588.66;10480327;28;2030;-64
2023/04/01 17:54:41;;;;;;;;;;;;;;;20.63;37.90;94600.72;10483296;28;2070;-64
2023/04/01 17:59:49;;;;;;;;;;;;;;;20.67;37.69;94604.31;10476372;28;2049;-63
2023/04/01 18:04:49;;;;;;;;;;;;;;;20.68;37.67;94602.47;10462876;28;2065;-62
2023/04/01 18:09:52;;;;;;;;;;;;;;;20.69;37.40;94610.03;10462632;28;1988;-64
2023/04/01 18:14:59;;;;;;;;;;;;;;;20.71;37.39;94622.94;10477705;28;2097;-64
2023/04/01 18:20:10;;;;;;;;;;;;;;;20.79;37.88;94630.84;10479704;28;2092;-65
2023/04/01 18:25:17;;;;;;;;;;;;;;;20.82;37.92;94632.13;10485078;28;1818;-65
2023/04/01 18:30:20;;;;;;;;;;;;;;;20.86;37.79;94633.06;10483203;28;1975;-66
2023/04/01 18:35:43;;;;;;;;;;;;;;;20.90;38.04;94634.81;10491123;28;2039;-65
2023/04/01 18:41:02;;;;;;;;;;;;;;;20.95;37.90;94637.31;10481316;28;1603;-66
2023/04/01 18:46:09;;;;;;;;;;;;;;;20.99;37.87;94640.91;10477071;28;1587;-66
2023/04/01 18:51:26;;;;;;;;;;;;;;;21.02;37.58;94635.06;10466658;28;1616;-66
2023/04/01 18:56:30;;;;;;;;;;;;;;;21.06;37.86;94651.81;10466628;28;1960;-67
2023/04/01 19:01:43;;;;;;;;;;;;;;;21.13;37.60;94663.78;10462861;28;1727;-64
2023/04/01 19:06:54;;;;;;;;;;;;;;;21.18;38.14;94667.06;10482309;28;1582;-65
2023/04/01 19:11:58;;;;;;;;;;;;;;;21.22;37.66;94667.25;10483516;28;1884;-66
2023/04/01 19:17:17;;;;;;;;;;;;;;;21.24;37.70;94676.41;10466047;28;2040;-65
2023/04/01 19:22:27;;;;;;;;;;;;;;;21.29;37.80;94675.50;10483786;28;1551;-65
2023/04/01 19:27:31;;;;;;;;;;;;;;;21.31;37.75;94678.63;10480876;28;2095;-65
2023/04/01 19:32:45;;;;;;;;;;;;;;;21.34;37.63;94691.97;10479470;28;2060;-64
2023/04/01 19:37:51;;;;;;;;;;;;;;;21.36;37.58;94702.19;10462956;28;2001;-65
2023/04/01 19:42:55;;;;;;;;;;;;;;;21.35;37.62;94709.31;10481598;28;1711;-65
2023/04/01 19:48:14;;;;;;;;;;;;;;;21.37;37.39;94709.03;10486383;28;2048;-66
2023/04/01 19:53:23;;;;;;;;;;;;;;;21.35;37.70;94708.56;10486058;28;2059;-65
2023/04/01 19:58:35;;;;;;;;;;;;;;;21.34;37.50;94714.91;10473550;28;1969;-64
2023/04/01 20:03:42;;;;;;;;;;;;;;;21.31;37.44;94711.00;10473233;28;2099;-65
2023/04/01 20:08:49;;;;;;;;;;;;;;;21.28;37.59;94716.09;10486510;28;1795;-64
2023/04/01 20:13:53;;;;;;;;;;;;;;;21.27;37.33;94717.19;10487228;28;2005;-66
2023/04/01 20:18:55;;;;;;;;;;;;;;;21.25;37.94;94721.97;10474959;28;2029;-65
2023/04/01 20:23:56;;;;;;;;;;;;;;;21.23;38.05;94724.13;10491480;28;1727;-65
2023/04/01 20:29:15;;;;;;;;;;;;;;;21.21;38.00;94726.28;10470318;28;2045;-66
2023/04/01 20:34:35;;;;;;;;;;;;;;;21.18;37.90;94732.97;10487889;28;1787;-66
2023/04/01 20:39:48;;;;;;;;;;;;;;;21.16;38.42;94737.75;10490257;28;1965;-65
2023/04/01 20:45:06;;;;;;;;;;;;;;;21.15;38.41;94738.03;10490624;28;2122;-66
2023/04/01 20:50:25;;;;;;;;;;;;;;;21.13;38.23;94740.97;10482970;28;2009;-66
2023/04/01 20:55:45;;;;;;;;;;;;;;;21.11;38.34;94742.34;10483366;28;2004;-66
2023/04/01 21:01:16;;;;;;;;;;;;;;;21.09;38.10;94740.03;10463008;28;2085;-65
2023/04/01 21:06:20;;;;;;;;;;;;;;;21.06;38.28;94744.03;10459918;28;2083;-65
2023/04/01 21:11:32;;;;;;;;;;;;;;;21.03;37.28;94749.91;10472030;28;1953;-59
2023/04/01 21:16:47;;;;;;;;;;;;;;;20.97;36.77;94753.72;10488360;28;2051;-60
2023/04/01 21:21:54;;;;;;;;;;;;;;;20.92;36.47;94755.69;10466846;28;2074;-60
2023/04/01 21:27:15;;;;;;;;;;;;;;;20.87;36.17;94753.97;10494626;28;2012;-60
2023/04/01 21:32:35;;;;;;;;;;;;;;;20.83;36.39;94760.13;10501262;28;1741;-60
2023/04/01 21:37:41;;;;;;;;;;;;;;;20.82;36.41;94761.19;10486405;28;2053;-59
2023/04/01 21:42:45;;;;;;;;;;;;;;;20.79;36.88;94769.69;10483804;28;1688;-59
2023/04/01 21:47:51;;;;;;;;;;;;;;;20.75;36.31;94764.22;10483703;28;2048;-61
2023/04/01 21:53:10;;;;;;;;;;;;;;;20.73;36.28;94776.16;10487985;28;1582;-61
2023/04/01 21:58:13;;;;;;;;;;;;;;;20.67;36.55;94777.34;10486408;28;2049;-61
2023/04/01 22:03:17;;;;;;;;;;;;;;;20.65;36.46;94790.78;10483871;28;1952;-61
2023/04/01 22:08:19;;;;;;;;;;;;;;;20.62;36.58;94794.03;10463339;28;2014;-61
2023/04/01 22:13:26;;;;;;;;;;;;;;;20.59;36.49;94802.50;10484084;28;1965;-61
2023/04/01 22:18:30;;;;;;;;;;;;;;;20.55;36.52;94801.53;10479705;28;1969;-61
2023/04/01 22:23:33;;;;;;;;;;;;;;;20.53;36.47;94803.69;10495699;28;2048;-61
2023/04/01 22:28:51;;;;;;;;;;;;;;;20.49;36.41;94797.44;10463978;28;2098;-61
2023/04/01 22:33:55;;;;;;;;;;;;;;;20.46;36.35;94807.81;10461744;28;1978;-61
2023/04/01 22:39:02;;;;;;;;;;;;;;;20.45;36.20;94803.59;10462116;28;2101;-61
2023/04/01 22:44:03;;;;;;;;;;;;;;;20.40;36.44;94804.50;10461109;28;2040;-61
2023/04/01 22:49:05;;;;;;;;;;;;;;;20.38;36.16;94809.25;10480140;28;2044;-61
2023/04/01 22:54:13;;;;;;;;;;;;;;;20.35;36.43;94803.81;10482896;28;2318;-61
2023/04/01 22:59:22;;;;;;;;;;;;;;;20.33;36.40;94804.13;10459955;28;1987;-61
2023/04/01 23:04:24;;;;;;;;;;;;;;;20.32;36.27;94805.16;10481497;28;2049;-61
2023/04/01 23:09:31;;;;;;;;;;;;;;;20.29;36.23;94811.03;10481884;28;1975;-61
2023/04/01 23:14:36;;;;;;;;;;;;;;;20.25;36.32;94821.38;10476330;28;2018;-61
2023/04/01 23:19:49;;;;;;;;;;;;;;;20.25;36.34;94823.22;10479266;28;2008;-61
2023/04/01 23:24:50;;;;;;;;;;;;;;;20.22;36.53;94827.22;10473704;28;1968;-61
2023/04/01 23:29:59;;;;;;;;;;;;;;;20.20;36.15;94834.63;10476080;28;1979;-61
2023/04/01 23:35:00;;;;;;;;;;;;;;;20.19;36.11;94840.16;10477171;28;2014;-61
2023/04/01 23:40:00;;;;;;;;;;;;;;;20.16;36.23;94843.34;10476856;28;2065;-61
2023/04/01 23:45:03;;;;;;;;;;;;;;;20.13;36.11;94847.34;10475729;28;1996;-61
2023/04/01 23:50:10;;;;;;;;;;;;;;;20.12;36.33;94850.28;10477622;28;1945;-62
2023/04/01 23:55:15;;;;;;;;;;;;;;;20.10;36.06;94849.78;10463212;28;2019;-61
